Hlavní strana
METAR-TAF:

METAR-TAF

Letiště :

Dayton, Ohio, Spojené státy americké

zeměpisná šířka: 39-35-20N, zeměpisná délka: 084-13-29W, výška: 292 m

Aktuální stav počasí

Zpráva byla vytvořena před 1 hodinou a 1 minutami, v 13:53 UTC
Jihojihozápadní vítr 7 kt
Teplota 3°C
Vlhkost vzduchu 56%
Tlak 1017 hPa
Viditelnost: 16.1 km
Jasno

METAR: KMGY 031353Z AUTO 20007KT 10SM CLR 03/M05 A3004 RMK AO2 SLP179 T00331050

Čas: 09:54 (14:54 UTC)


TAF: chybějící

Stav a předpovědi počasí z více než 4 000 letišť (zprávy METAR a TAF).

Červené a žluté tečky na mapě představují dostupné meteorologické stanice.

Když kurzor umístíte na tečku, zobrazí se název stanice.

Pak kliknutím zobrazíte stav a předpověď počasí.

Chcete-li změnit mapu, kliknutím na zelené tlačítko se znaménkem +mapu přiblížíte, kliknutím na zelené tlačítko se znaménkem – mapu oddálíte a kliknutím na zelené šipky přejdete na sousední mapy.


METAR-TAF: